Time;durP1;ratioP1;P1;durP2;ratioP2;P2;SDS_P1;SDS_P2;PMS_P1;PMS_P2;Temp;Humidity;BMP_temperature;BMP_pressure;BME280_temperature;BME280_humidity;BME280_pressure;Samples;Min_cycle;Max_cycle;Signal;HPM_P1;HPM_P2
2022/12/09 00:01:21;;;;;;;35.53;16.85;;;;;;;;;;5062982;28;20186;-81
2022/12/09 00:03:49;;;;;;;33.53;16.27;;;;;;;;;;5079063;28;20041;-81
2022/12/09 00:06:19;;;;;;;31.25;16.15;;;;;;;;;;5086403;28;20048;-81
2022/12/09 00:08:50;;;;;;;35.45;16.58;;;;;;;;;;5073729;28;20056;-81
2022/12/09 00:11:20;;;;;;;;;;;;;;;;;;5085330;28;20049;-81
2022/12/09 00:13:49;;;;;;;28.13;14.27;;;;;;;;;;5084370;28;43985;-81
2022/12/09 00:16:16;;;;;;;32.97;17.52;;;;;;;;;;5077615;28;20049;-81
2022/12/09 00:18:44;;;;;;;39.47;17.25;;;;;;;;;;5088693;28;20864;-81
2022/12/09 00:21:18;;;;;;;31.52;16.92;;;;;;;;;;5074384;28;20041;-81
2022/12/09 00:23:46;;;;;;;34.65;17.35;;;;;;;;;;5061907;28;20049;-81
2022/12/09 00:26:14;;;;;;;32.38;16.77;;;;;;;;;;5074191;28;20045;-81
2022/12/09 00:28:42;;;;;;;38.50;16.67;;;;;;;;;;5067002;28;20033;-81
2022/12/09 00:31:15;;;;;;;37.22;17.33;;;;;;;;;;5089139;28;20425;-81
2022/12/09 00:33:43;;;;;;;37.53;17.77;;;;;;;;;;5076780;28;20056;-81
2022/12/09 00:36:13;;;;;;;36.30;16.98;;;;;;;;;;5076198;28;20080;-80
2022/12/09 00:38:41;;;;;;;37.78;16.38;;;;;;;;;;5063798;28;20057;-81
2022/12/09 00:41:09;;;;;;;36.72;16.60;;;;;;;;;;5082579;28;20064;-81
2022/12/09 00:43:36;;;;;;;35.85;17.48;;;;;;;;;;5080989;28;20041;-81
2022/12/09 00:46:04;;;;;;;38.28;19.13;;;;;;;;;;5061897;28;20053;-81
2022/12/09 00:48:33;;;;;;;32.45;16.60;;;;;;;;;;5082668;28;20219;-81
2022/12/09 00:51:01;;;;;;;35.42;17.23;;;;;;;;;;5082019;28;20040;-81
2022/12/09 00:53:28;;;;;;;38.95;18.13;;;;;;;;;;5088908;28;20057;-81
2022/12/09 00:55:56;;;;;;;36.22;19.08;;;;;;;;;;5066469;28;20045;-81
2022/12/09 00:58:23;;;;;;;34.35;17.38;;;;;;;;;;5084771;28;20107;-81
2022/12/09 01:00:52;;;;;;;33.60;17.17;;;;;;;;;;5081590;28;20882;-81
2022/12/09 01:03:19;;;;;;;33.88;17.48;;;;;;;;;;5072684;28;20075;-80
2022/12/09 01:05:50;;;;;;;38.33;17.55;;;;;;;;;;5066287;28;20060;-81
2022/12/09 01:08:20;;;;;;;33.28;17.13;;;;;;;;;;5087113;28;20075;-81
2022/12/09 01:10:48;;;;;;;40.05;16.92;;;;;;;;;;5086510;28;20053;-81
2022/12/09 01:13:16;;;;;;;36.30;18.38;;;;;;;;;;5082701;28;20053;-81
2022/12/09 01:15:43;;;;;;;34.83;16.95;;;;;;;;;;5087397;28;20052;-81
2022/12/09 01:18:11;;;;;;;34.22;15.80;;;;;;;;;;5082406;28;20047;-81
2022/12/09 01:20:39;;;;;;;36.53;16.98;;;;;;;;;;5063653;28;20049;-81
2022/12/09 01:23:07;;;;;;;36.63;17.20;;;;;;;;;;5090604;28;20113;-81
2022/12/09 01:25:37;;;;;;;37.40;16.15;;;;;;;;;;5094723;28;20106;-81
2022/12/09 01:28:05;;;;;;;35.38;16.10;;;;;;;;;;5082581;28;20041;-81
2022/12/09 01:30:32;;;;;;;33.38;15.77;;;;;;;;;;5085605;28;20083;-81
2022/12/09 01:32:59;;;;;;;33.92;17.17;;;;;;;;;;5056303;28;20053;-81
2022/12/09 01:35:27;;;;;;;36.75;16.60;;;;;;;;;;5089407;28;20087;-81
2022/12/09 01:37:55;;;;;;;35.22;16.83;;;;;;;;;;5075127;28;20041;-81
2022/12/09 01:40:22;;;;;;;29.25;15.40;;;;;;;;;;5061549;28;20068;-81
2022/12/09 01:42:50;;;;;;;37.20;15.82;;;;;;;;;;5079066;28;20041;-81
2022/12/09 01:45:22;;;;;;;41.88;14.02;;;;;;;;;;5092801;28;20041;-81
2022/12/09 01:48:04;;;;;;;33.15;14.57;;;;;;;;;;5063754;28;20060;-81
2022/12/09 01:50:33;;;;;;;30.07;13.90;;;;;;;;;;5083398;28;20045;-81
2022/12/09 01:53:01;;;;;;;43.60;14.60;;;;;;;;;;5074471;28;20119;-81
2022/12/09 01:55:29;;;;;;;48.67;13.88;;;;;;;;;;5081147;28;20914;-81
2022/12/09 01:57:57;;;;;;;28.60;13.38;;;;;;;;;;5088493;28;20056;-82
2022/12/09 02:00:25;;;;;;;28.98;13.35;;;;;;;;;;5075901;28;20072;-81
2022/12/09 02:02:56;;;;;;;25.17;14.00;;;;;;;;;;5066321;28;20060;-82
2022/12/09 02:05:24;;;;;;;28.55;14.13;;;;;;;;;;5083679;28;20041;-81
2022/12/09 02:07:54;;;;;;;32.65;13.85;;;;;;;;;;5081712;28;20041;-81
2022/12/09 02:10:22;;;;;;;61.80;13.25;;;;;;;;;;5084925;28;20049;-81
2022/12/09 02:12:56;;;;;;;41.90;13.73;;;;;;;;;;5083150;28;20063;-81
2022/12/09 02:15:23;;;;;;;;;;;;;;;;;;5083844;28;20071;-81
2022/12/09 02:17:57;;;;;;;28.92;12.98;;;;;;;;;;5061779;28;41882;-81
2022/12/09 02:20:53;;;;;;;47.70;13.65;;;;;;;;;;5084759;28;20064;-81
2022/12/09 02:23:28;;;;;;;37.13;14.40;;;;;;;;;;5064643;28;20049;-81
2022/12/09 02:25:57;;;;;;;31.90;13.65;;;;;;;;;;5075946;28;20590;-81
2022/12/09 02:28:43;;;;;;;34.95;12.93;;;;;;;;;;5087828;28;20036;-81
2022/12/09 02:31:26;;;;;;;31.98;11.45;;;;;;;;;;5083120;28;20514;-81
2022/12/09 02:34:11;;;;;;;38.08;12.70;;;;;;;;;;5078017;28;20055;-81
2022/12/09 02:36:53;;;;;;;44.53;12.57;;;;;;;;;;5076567;28;20056;-81
2022/12/09 02:39:35;;;;;;;31.98;12.50;;;;;;;;;;5080834;28;20140;-81
2022/12/09 02:42:08;;;;;;;25.73;11.90;;;;;;;;;;5081171;28;20988;-81
2022/12/09 02:44:37;;;;;;;31.63;12.30;;;;;;;;;;5083664;28;20045;-81
2022/12/09 02:47:06;;;;;;;47.70;12.93;;;;;;;;;;5080705;28;20056;-81
2022/12/09 02:49:34;;;;;;;41.30;12.40;;;;;;;;;;5084944;28;20096;-80
2022/12/09 02:52:04;;;;;;;38.92;11.98;;;;;;;;;;5079885;28;20053;-81
2022/12/09 02:54:33;;;;;;;60.47;12.88;;;;;;;;;;5077061;28;20053;-81
2022/12/09 02:57:02;;;;;;;145.32;14.23;;;;;;;;;;5056467;28;20041;-81
2022/12/09 02:59:30;;;;;;;107.28;13.90;;;;;;;;;;5078855;28;20105;-81
2022/12/09 03:02:07;;;;;;;163.27;14.88;;;;;;;;;;5078986;28;20049;-81
2022/12/09 03:04:37;;;;;;;99.22;12.77;;;;;;;;;;5085834;28;20123;-80
2022/12/09 03:07:11;;;;;;;91.70;12.10;;;;;;;;;;5081289;28;20052;-81
2022/12/09 03:09:40;;;;;;;45.60;11.40;;;;;;;;;;5069584;28;20041;-80
2022/12/09 03:12:10;;;;;;;121.68;12.80;;;;;;;;;;5083973;28;20049;-81
2022/12/09 03:14:40;;;;;;;149.38;13.43;;;;;;;;;;5083990;28;20505;-81
2022/12/09 03:17:18;;;;;;;43.15;12.02;;;;;;;;;;5082364;28;20048;-80
2022/12/09 03:20:01;;;;;;;25.55;10.88;;;;;;;;;;5062535;28;20081;-80
2022/12/09 03:22:30;;;;;;;114.28;10.70;;;;;;;;;;5077947;28;20053;-80
2022/12/09 03:25:14;;;;;;;238.07;14.43;;;;;;;;;;5084981;28;20044;-80
2022/12/09 03:27:43;;;;;;;128.88;9.88;;;;;;;;;;5078900;28;20049;-80
2022/12/09 03:30:11;;;;;;;91.80;9.35;;;;;;;;;;5079285;28;20136;-80
2022/12/09 03:32:41;;;;;;;39.10;10.02;;;;;;;;;;5083165;28;20177;-80
2022/12/09 03:35:14;;;;;;;73.25;10.25;;;;;;;;;;5086549;28;20083;-82
2022/12/09 03:37:43;;;;;;;126.90;10.93;;;;;;;;;;5068650;28;20056;-80
2022/12/09 03:40:13;;;;;;;180.55;12.00;;;;;;;;;;5080009;28;20311;-80
2022/12/09 03:42:55;;;;;;;145.38;10.32;;;;;;;;;;5081259;28;20898;-81
2022/12/09 03:45:23;;;;;;;157.95;10.88;;;;;;;;;;5077559;28;20056;-80
2022/12/09 03:47:54;;;;;;;180.50;11.77;;;;;;;;;;5078095;28;21705;-80
2022/12/09 03:50:23;;;;;;;114.78;11.02;;;;;;;;;;5086349;28;20502;-80
2022/12/09 03:52:58;;;;;;;144.65;11.35;;;;;;;;;;5080546;28;20056;-80
2022/12/09 03:55:31;;;;;;;144.68;10.50;;;;;;;;;;5089220;28;20055;-80
2022/12/09 03:58:02;;;;;;;207.57;11.00;;;;;;;;;;5073791;28;20050;-80
2022/12/09 04:00:30;;;;;;;100.15;8.77;;;;;;;;;;5086808;28;20037;-80
2022/12/09 04:02:58;;;;;;;157.10;11.48;;;;;;;;;;5090810;28;20053;-80
2022/12/09 04:05:25;;;;;;;119.07;9.98;;;;;;;;;;5079613;28;20088;-80
2022/12/09 04:07:53;;;;;;;141.32;11.68;;;;;;;;;;5083281;28;20088;-80
2022/12/09 04:10:23;;;;;;;115.05;10.00;;;;;;;;;;5081727;28;20068;-80
2022/12/09 04:12:53;;;;;;;51.65;8.70;;;;;;;;;;5072445;28;20130;-80
2022/12/09 04:15:23;;;;;;;37.60;9.05;;;;;;;;;;5076926;28;20053;-81
2022/12/09 04:17:51;;;;;;;28.80;10.15;;;;;;;;;;5082001;28;20107;-80
2022/12/09 04:20:21;;;;;;;51.10;10.05;;;;;;;;;;5077744;28;20068;-80
2022/12/09 04:22:49;;;;;;;43.65;10.40;;;;;;;;;;5076244;28;20160;-80
2022/12/09 04:25:16;;;;;;;26.98;10.00;;;;;;;;;;5085237;28;20072;-79
2022/12/09 04:27:43;;;;;;;21.20;9.30;;;;;;;;;;5084851;28;20052;-80
2022/12/09 04:30:11;;;;;;;21.88;10.02;;;;;;;;;;5080319;28;20068;-80
2022/12/09 04:32:39;;;;;;;27.25;10.68;;;;;;;;;;5091795;28;20034;-80
2022/12/09 04:35:07;;;;;;;20.88;10.10;;;;;;;;;;5086249;28;20053;-80
2022/12/09 04:37:36;;;;;;;26.85;10.68;;;;;;;;;;5082875;28;20061;-80
2022/12/09 04:40:04;;;;;;;21.63;10.00;;;;;;;;;;5065094;28;20037;-80
2022/12/09 04:42:33;;;;;;;28.92;10.82;;;;;;;;;;5082022;28;20037;-80
2022/12/09 04:45:01;;;;;;;36.85;11.18;;;;;;;;;;5082626;28;21887;-80
2022/12/09 04:47:29;;;;;;;33.05;11.38;;;;;;;;;;5082368;28;20038;-80
2022/12/09 04:49:57;;;;;;;55.22;11.82;;;;;;;;;;5073238;28;21239;-80
2022/12/09 04:52:24;;;;;;;38.58;11.00;;;;;;;;;;5079386;28;20053;-80
2022/12/09 04:54:54;;;;;;;85.93;12.65;;;;;;;;;;5074659;28;20060;-79
2022/12/09 04:57:24;;;;;;;85.40;13.20;;;;;;;;;;5067156;28;20839;-80
2022/12/09 04:59:55;;;;;;;32.88;11.43;;;;;;;;;;5079682;28;20041;-80
2022/12/09 05:02:23;;;;;;;81.35;12.75;;;;;;;;;;5065746;28;20053;-80
2022/12/09 05:04:50;;;;;;;139.63;12.15;;;;;;;;;;5079256;28;20095;-79
2022/12/09 05:07:22;;;;;;;132.18;13.90;;;;;;;;;;5082841;28;20126;-80
2022/12/09 05:09:49;;;;;;;153.20;14.35;;;;;;;;;;5079386;28;20041;-80
2022/12/09 05:12:18;;;;;;;167.23;13.52;;;;;;;;;;5084077;28;20112;-80
2022/12/09 05:14:46;;;;;;;290.73;17.00;;;;;;;;;;5065559;28;20048;-79
2022/12/09 05:17:14;;;;;;;162.32;14.88;;;;;;;;;;5085954;28;20053;-79
2022/12/09 05:19:44;;;;;;;180.10;14.82;;;;;;;;;;5081672;28;20491;-80
2022/12/09 05:22:15;;;;;;;146.50;14.05;;;;;;;;;;5076453;28;20088;-80
2022/12/09 05:24:46;;;;;;;274.25;17.58;;;;;;;;;;5079167;28;20045;-80
2022/12/09 05:27:17;;;;;;;234.57;16.65;;;;;;;;;;5078741;28;20058;-79
2022/12/09 05:29:45;;;;;;;326.35;16.75;;;;;;;;;;5079376;28;20033;-80
2022/12/09 05:32:13;;;;;;;365.33;20.90;;;;;;;;;;5083707;28;20033;-79
2022/12/09 05:34:43;;;;;;;231.48;15.50;;;;;;;;;;5082116;28;20059;-80
2022/12/09 05:37:14;;;;;;;252.43;16.70;;;;;;;;;;5071677;28;20049;-80
2022/12/09 05:39:45;;;;;;;167.65;15.55;;;;;;;;;;5083201;28;20107;-79
2022/12/09 05:42:15;;;;;;;277.02;17.23;;;;;;;;;;5064055;28;20056;-79
2022/12/09 05:44:42;;;;;;;276.50;16.25;;;;;;;;;;5075763;28;20045;-80
2022/12/09 05:47:10;;;;;;;468.08;22.52;;;;;;;;;;5085497;28;20553;-79
2022/12/09 05:49:39;;;;;;;133.75;14.65;;;;;;;;;;5078576;28;20755;-79
2022/12/09 05:52:06;;;;;;;482.15;23.27;;;;;;;;;;5080348;28;20025;-79
2022/12/09 05:54:34;;;;;;;174.20;14.32;;;;;;;;;;5077290;28;20041;-79
2022/12/09 05:57:05;;;;;;;351.75;18.73;;;;;;;;;;5072978;28;20105;-80
2022/12/09 05:59:33;;;;;;;303.83;16.70;;;;;;;;;;5079349;28;20037;-80
2022/12/09 06:02:01;;;;;;;301.15;17.05;;;;;;;;;;5085262;28;20041;-80
2022/12/09 06:04:35;;;;;;;181.88;15.50;;;;;;;;;;5090061;28;20061;-80
2022/12/09 06:07:03;;;;;;;282.67;18.45;;;;;;;;;;5081083;28;20059;-80
2022/12/09 06:09:31;;;;;;;244.85;17.77;;;;;;;;;;5077385;28;20076;-80
2022/12/09 06:11:59;;;;;;;227.35;18.55;;;;;;;;;;5079328;28;20041;-80
2022/12/09 06:14:27;;;;;;;99.70;15.38;;;;;;;;;;5077465;28;20491;-79
2022/12/09 06:16:55;;;;;;;102.10;15.95;;;;;;;;;;5074622;28;20053;-80
2022/12/09 06:19:22;;;;;;;164.63;15.77;;;;;;;;;;5079550;28;20053;-79
2022/12/09 06:21:50;;;;;;;152.93;14.95;;;;;;;;;;5081765;28;20029;-80
2022/12/09 06:24:20;;;;;;;341.65;19.67;;;;;;;;;;5086801;28;20180;-79
2022/12/09 06:26:48;;;;;;;300.45;17.85;;;;;;;;;;5077850;28;20056;-79
2022/12/09 06:29:15;;;;;;;192.43;17.13;;;;;;;;;;5061432;28;20041;-80
2022/12/09 06:31:43;;;;;;;230.18;17.73;;;;;;;;;;5081477;28;20033;-80
2022/12/09 06:34:10;;;;;;;144.32;17.48;;;;;;;;;;5079589;28;20472;-80
2022/12/09 06:36:38;;;;;;;77.65;15.27;;;;;;;;;;5077453;28;20131;-79
2022/12/09 06:39:06;;;;;;;66.70;14.10;;;;;;;;;;5078548;28;20056;-80
2022/12/09 06:41:38;;;;;;;59.13;15.23;;;;;;;;;;5089186;28;20083;-79
2022/12/09 06:44:05;;;;;;;49.25;15.40;;;;;;;;;;5079443;28;20049;-79
2022/12/09 06:46:33;;;;;;;176.63;18.20;;;;;;;;;;5079331;28;20737;-80
2022/12/09 06:49:01;;;;;;;187.80;18.90;;;;;;;;;;5058153;28;20045;-80
2022/12/09 06:51:29;;;;;;;126.25;16.33;;;;;;;;;;5081705;28;20052;-80
2022/12/09 06:53:56;;;;;;;98.38;16.50;;;;;;;;;;5078075;28;20101;-80
2022/12/09 06:56:24;;;;;;;137.18;18.92;;;;;;;;;;5079706;28;20079;-80
2022/12/09 06:58:54;;;;;;;100.38;18.73;;;;;;;;;;5076493;28;20119;-80
2022/12/09 07:01:23;;;;;;;122.22;18.80;;;;;;;;;;5060597;28;20107;-80
2022/12/09 07:03:52;;;;;;;80.45;18.75;;;;;;;;;;5075748;28;20053;-79
2022/12/09 07:06:26;;;;;;;42.90;16.33;;;;;;;;;;5078980;28;20048;-80
2022/12/09 07:08:54;;;;;;;47.35;17.52;;;;;;;;;;5055465;28;20053;-80
2022/12/09 07:11:22;;;;;;;48.78;15.93;;;;;;;;;;5063168;28;20057;-79
2022/12/09 07:13:53;;;;;;;53.88;16.40;;;;;;;;;;5077403;28;20085;-80
2022/12/09 07:16:24;;;;;;;34.35;14.45;;;;;;;;;;5070919;28;20057;-80
2022/12/09 07:18:55;;;;;;;34.83;15.80;;;;;;;;;;5078324;28;20136;-80
2022/12/09 07:21:24;;;;;;;43.97;15.45;;;;;;;;;;5061160;28;20057;-79
2022/12/09 07:23:52;;;;;;;59.47;16.90;;;;;;;;;;5078044;28;20521;-79
2022/12/09 07:26:23;;;;;;;46.15;16.95;;;;;;;;;;5068279;28;20100;-80
2022/12/09 07:28:52;;;;;;;98.78;17.80;;;;;;;;;;5072353;28;20053;-80
2022/12/09 07:31:22;;;;;;;71.18;18.38;;;;;;;;;;5075099;28;20060;-80
2022/12/09 07:33:51;;;;;;;60.20;18.33;;;;;;;;;;5073045;28;20037;-79
2022/12/09 07:36:22;;;;;;;68.78;16.40;;;;;;;;;;5058152;28;20061;-80
2022/12/09 07:39:06;;;;;;;248.30;21.52;;;;;;;;;;5072700;28;20108;-79
2022/12/09 07:41:34;;;;;;;94.03;17.23;;;;;;;;;;5069983;28;20045;-79
2022/12/09 07:44:02;;;;;;;148.95;20.75;;;;;;;;;;5075239;28;20107;-79
2022/12/09 07:46:30;;;;;;;214.15;22.50;;;;;;;;;;5075257;28;20581;-79
2022/12/09 07:48:58;;;;;;;86.90;18.17;;;;;;;;;;5079006;28;20053;-79
2022/12/09 07:51:28;;;;;;;270.00;21.30;;;;;;;;;;5068757;28;20481;-79
2022/12/09 07:53:56;;;;;;;57.28;17.08;;;;;;;;;;5071978;28;20053;-79
2022/12/09 07:56:27;;;;;;;60.70;18.35;;;;;;;;;;5071905;28;20099;-80
2022/12/09 07:58:55;;;;;;;33.28;15.43;;;;;;;;;;5072380;28;20121;-79
2022/12/09 08:01:26;;;;;;;37.47;16.85;;;;;;;;;;5074492;28;20038;-79
2022/12/09 08:03:55;;;;;;;54.38;18.40;;;;;;;;;;5080483;28;20057;-79
2022/12/09 08:06:24;;;;;;;73.25;19.23;;;;;;;;;;5071759;28;20146;-79
2022/12/09 08:08:53;;;;;;;135.23;20.73;;;;;;;;;;5070426;28;20057;-80
2022/12/09 08:11:22;;;;;;;152.13;19.67;;;;;;;;;;5074078;28;20052;-79
2022/12/09 08:13:52;;;;;;;117.82;19.13;;;;;;;;;;5070669;28;20045;-79
2022/12/09 08:16:21;;;;;;;242.90;21.40;;;;;;;;;;5070045;28;20144;-79
2022/12/09 08:18:50;;;;;;;68.93;16.77;;;;;;;;;;5071537;28;20041;-79
2022/12/09 08:21:28;;;;;;;98.70;17.40;;;;;;;;;;5072442;28;20056;-79
2022/12/09 08:23:57;;;;;;;213.88;19.65;;;;;;;;;;5067252;28;20056;-79
2022/12/09 08:26:27;;;;;;;299.13;18.55;;;;;;;;;;5073812;28;20049;-80
2022/12/09 08:28:54;;;;;;;244.60;19.95;;;;;;;;;;5053061;28;20049;-80
2022/12/09 08:31:23;;;;;;;360.73;21.17;;;;;;;;;;5067391;28;20052;-79
2022/12/09 08:33:52;;;;;;;497.08;26.33;;;;;;;;;;5069620;28;20096;-79
2022/12/09 08:36:22;;;;;;;354.33;17.77;;;;;;;;;;5069085;28;20053;-79
2022/12/09 08:38:50;;;;;;;341.23;20.27;;;;;;;;;;5062537;28;20748;-79
2022/12/09 08:41:34;;;;;;;285.77;17.45;;;;;;;;;;5071732;28;20060;-79
2022/12/09 08:44:05;;;;;;;216.30;16.08;;;;;;;;;;5072891;28;20049;-79
2022/12/09 08:46:34;;;;;;;460.33;21.38;;;;;;;;;;5068724;28;20055;-79
2022/12/09 08:49:02;;;;;;;287.17;18.10;;;;;;;;;;5066749;28;20037;-79
2022/12/09 08:51:30;;;;;;;226.70;16.10;;;;;;;;;;5065652;28;20047;-78
2022/12/09 08:53:59;;;;;;;170.80;15.73;;;;;;;;;;5065454;28;20044;-79
2022/12/09 08:56:27;;;;;;;265.42;19.90;;;;;;;;;;5070753;28;20878;-81
2022/12/09 08:58:55;;;;;;;251.50;18.80;;;;;;;;;;5067774;28;20032;-79
2022/12/09 09:01:24;;;;;;;301.60;20.48;;;;;;;;;;5071762;28;20081;-79
2022/12/09 09:03:53;;;;;;;230.18;20.52;;;;;;;;;;5068892;28;20057;-79
2022/12/09 09:06:23;;;;;;;144.25;19.92;;;;;;;;;;5073024;28;20044;-79
2022/12/09 09:08:53;;;;;;;211.25;20.15;;;;;;;;;;5068094;28;20094;-79
2022/12/09 09:11:30;;;;;;;230.90;18.35;;;;;;;;;;5072289;28;20079;-79
2022/12/09 09:13:58;;;;;;;122.15;13.57;;;;;;;;;;5059895;28;20057;-79
2022/12/09 09:16:26;;;;;;;182.25;13.75;;;;;;;;;;5076412;28;20181;-79
2022/12/09 09:18:55;;;;;;;145.55;13.73;;;;;;;;;;5075552;28;20041;-79
2022/12/09 09:21:31;;;;;;;153.80;12.82;;;;;;;;;;5058534;28;20049;-79
2022/12/09 09:24:00;;;;;;;135.95;12.10;;;;;;;;;;5037022;28;20094;-80
2022/12/09 09:26:29;;;;;;;95.22;12.70;;;;;;;;;;5032748;28;20057;-79
2022/12/09 09:28:57;;;;;;;114.85;13.27;;;;;;;;;;5032411;28;20053;-79
2022/12/09 09:31:27;;;;;;;89.07;13.20;;;;;;;;;;5029627;28;20116;-79
2022/12/09 09:33:56;;;;;;;62.92;11.93;;;;;;;;;;5046740;28;20108;-79
2022/12/09 09:36:25;;;;;;;32.85;12.70;;;;;;;;;;5023442;28;20145;-80
2022/12/09 09:38:56;;;;;;;33.47;14.60;;;;;;;;;;5028085;28;20052;-79
2022/12/09 09:41:42;;;;;;;33.53;13.70;;;;;;;;;;5038939;28;20527;-79
2022/12/09 09:44:29;;;;;;;34.53;14.57;;;;;;;;;;5033717;28;20056;-79
2022/12/09 09:46:57;;;;;;;31.13;15.68;;;;;;;;;;5031663;28;20814;-79
2022/12/09 09:49:28;;;;;;;39.45;16.00;;;;;;;;;;5030172;28;20046;-79
2022/12/09 09:51:56;;;;;;;43.80;17.75;;;;;;;;;;5031456;28;20923;-79
2022/12/09 09:54:24;;;;;;;38.35;17.23;;;;;;;;;;5030627;28;20054;-79
2022/12/09 09:57:00;;;;;;;38.03;16.88;;;;;;;;;;5030901;28;20113;-80
2022/12/09 09:59:33;;;;;;;35.95;16.15;;;;;;;;;;5030155;28;20076;-81
2022/12/09 10:02:12;;;;;;;43.38;17.35;;;;;;;;;;5037768;28;20652;-79
2022/12/09 10:04:52;;;;;;;36.80;17.38;;;;;;;;;;5034701;28;20058;-79
2022/12/09 10:07:38;;;;;;;40.60;18.23;;;;;;;;;;5037161;28;20109;-81
2022/12/09 10:10:15;;;;;;;37.92;17.33;;;;;;;;;;5040271;28;20042;-80
2022/12/09 10:12:50;;;;;;;37.08;16.83;;;;;;;;;;5043244;28;20038;-79
2022/12/09 10:15:28;;;;;;;46.15;19.63;;;;;;;;;;5042474;28;20058;-79
2022/12/09 10:18:16;;;;;;;38.60;17.87;;;;;;;;;;5059571;28;21237;-80
2022/12/09 10:20:45;;;;;;;37.22;18.10;;;;;;;;;;5045874;28;20053;-80
2022/12/09 10:23:15;;;;;;;39.78;18.25;;;;;;;;;;5076793;28;20074;-80
2022/12/09 10:25:48;;;;;;;38.80;17.40;;;;;;;;;;5091257;28;20057;-80
2022/12/09 10:28:28;;;;;;;36.33;16.85;;;;;;;;;;5081996;28;20045;-80
2022/12/09 10:30:56;;;;;;;41.63;18.80;;;;;;;;;;5078250;28;20060;-80
2022/12/09 10:33:26;;;;;;;45.17;19.05;;;;;;;;;;5068900;28;20057;-80
2022/12/09 10:35:55;;;;;;;51.08;18.35;;;;;;;;;;5083948;28;20037;-79
2022/12/09 10:38:25;;;;;;;38.20;18.13;;;;;;;;;;5082343;28;20044;-79
2022/12/09 10:41:00;;;;;;;39.83;17.10;;;;;;;;;;5080197;28;20104;-80
2022/12/09 10:43:42;;;;;;;41.72;18.38;;;;;;;;;;5072097;28;20053;-79
2022/12/09 10:46:18;;;;;;;35.03;16.65;;;;;;;;;;5084337;28;20079;-80
2022/12/09 10:48:48;;;;;;;38.65;16.77;;;;;;;;;;5084582;28;20041;-80
2022/12/09 10:51:18;;;;;;;42.75;17.95;;;;;;;;;;5081787;28;20128;-80
2022/12/09 10:53:59;;;;;;;35.15;17.05;;;;;;;;;;5065523;28;22099;-81
2022/12/09 10:56:29;;;;;;;42.67;18.08;;;;;;;;;;5079660;28;20052;-80
2022/12/09 10:59:11;;;;;;;37.20;17.52;;;;;;;;;;5083245;28;20052;-80
2022/12/09 11:01:54;;;;;;;34.97;16.42;;;;;;;;;;5086965;28;20140;-80
2022/12/09 11:04:27;;;;;;;34.03;16.30;;;;;;;;;;5085874;28;20049;-80
2022/12/09 11:06:57;;;;;;;39.80;17.25;;;;;;;;;;5086867;28;20075;-81
2022/12/09 11:09:32;;;;;;;42.10;17.70;;;;;;;;;;5077482;28;20045;-81
2022/12/09 11:12:01;;;;;;;40.97;16.58;;;;;;;;;;5083168;28;20061;-81
2022/12/09 11:14:31;;;;;;;38.60;18.13;;;;;;;;;;5083038;28;20040;-80
2022/12/09 11:17:10;;;;;;;39.65;16.63;;;;;;;;;;5070419;28;20094;-81
2022/12/09 11:19:42;;;;;;;38.97;16.35;;;;;;;;;;5072857;28;20067;-81
2022/12/09 11:22:21;;;;;;;35.47;17.67;;;;;;;;;;5085938;28;20053;-80
2022/12/09 11:24:52;;;;;;;39.20;17.27;;;;;;;;;;5043584;28;20048;-80
2022/12/09 11:27:28;;;;;;;33.45;16.05;;;;;;;;;;5086614;28;20049;-80
2022/12/09 11:30:05;;;;;;;34.58;17.38;;;;;;;;;;5086460;28;20143;-79
2022/12/09 11:32:58;;;;;;;36.63;16.30;;;;;;;;;;5079323;28;20068;-80
2022/12/09 11:35:38;;;;;;;38.42;16.85;;;;;;;;;;5082596;28;20040;-80
2022/12/09 11:38:24;;;;;;;37.78;16.30;;;;;;;;;;5076423;28;20053;-80
2022/12/09 11:44:13;;;;;;;35.53;16.55;;;;;;;;;;5047029;28;20060;-80
2022/12/09 11:46:41;;;;;;;36.88;16.30;;;;;;;;;;5082677;28;20053;-80
2022/12/09 11:49:17;;;;;;;35.40;16.67;;;;;;;;;;5068229;28;20049;-80
2022/12/09 11:52:05;;;;;;;35.45;15.88;;;;;;;;;;5082653;28;20049;-81
2022/12/09 11:54:40;;;;;;;37.90;15.85;;;;;;;;;;5083649;28;20056;-80
2022/12/09 11:57:14;;;;;;;46.72;17.42;;;;;;;;;;5067790;28;20051;-80
2022/12/09 11:59:48;;;;;;;40.70;17.77;;;;;;;;;;5065440;28;20049;-80
2022/12/09 12:02:27;;;;;;;34.92;15.45;;;;;;;;;;5084353;28;20106;-81
2022/12/09 12:05:18;;;;;;;34.08;16.95;;;;;;;;;;5088881;28;20104;-80
2022/12/09 12:07:57;;;;;;;31.73;15.20;;;;;;;;;;5070606;28;20623;-80
2022/12/09 12:10:31;;;;;;;32.50;16.58;;;;;;;;;;5077754;28;20049;-81
2022/12/09 12:13:05;;;;;;;31.50;15.60;;;;;;;;;;5083521;28;20049;-80
2022/12/09 12:15:39;;;;;;;35.25;15.05;;;;;;;;;;5079981;28;20101;-80
2022/12/09 12:18:06;;;;;;;;;;;;;;;;;;5064332;28;20838;-80
2022/12/09 12:20:47;;;;;;;29.30;15.63;;;;;;;;;;5083176;28;44116;-81
2022/12/09 12:23:33;;;;;;;32.25;15.40;;;;;;;;;;5083447;28;20064;-80
2022/12/09 12:26:06;;;;;;;31.77;15.07;;;;;;;;;;5071402;28;20040;-80
2022/12/09 12:28:42;;;;;;;33.50;14.60;;;;;;;;;;5083763;28;20049;-80
2022/12/09 12:31:15;;;;;;;28.63;14.73;;;;;;;;;;5067381;28;20041;-80
2022/12/09 12:33:54;;;;;;;25.65;13.73;;;;;;;;;;5083417;28;20049;-80
2022/12/09 12:36:48;;;;;;;31.20;15.07;;;;;;;;;;5063980;28;20062;-81
2022/12/09 12:39:38;;;;;;;31.35;15.20;;;;;;;;;;5078418;28;20068;-81
2022/12/09 12:42:30;;;;;;;28.60;14.13;;;;;;;;;;5063112;28;20097;-80
2022/12/09 12:48:03;;;;;;;30.80;15.65;;;;;;;;;;5087710;28;20037;-80
2022/12/09 12:50:37;;;;;;;33.90;15.43;;;;;;;;;;5088409;28;20097;-81
2022/12/09 12:53:20;;;;;;;32.33;15.40;;;;;;;;;;5087909;28;20049;-80
2022/12/09 12:56:04;;;;;;;27.95;14.43;;;;;;;;;;5084816;28;20071;-81
2022/12/09 12:58:41;;;;;;;34.08;15.73;;;;;;;;;;5093536;28;20505;-81
2022/12/09 13:01:16;;;;;;;29.48;15.18;;;;;;;;;;5073049;28;20044;-80
2022/12/09 13:04:01;;;;;;;34.15;15.88;;;;;;;;;;5088191;28;20045;-80
2022/12/09 13:06:39;;;;;;;30.33;15.80;;;;;;;;;;5086349;28;20049;-81
2022/12/09 13:09:30;;;;;;;29.25;14.77;;;;;;;;;;5093738;28;20052;-80
2022/12/09 13:12:02;;;;;;;29.63;15.00;;;;;;;;;;5083792;28;20068;-80
2022/12/09 13:14:33;;;;;;;26.92;14.68;;;;;;;;;;5094539;28;20106;-80
2022/12/09 13:17:05;;;;;;;24.33;13.25;;;;;;;;;;5085468;28;20144;-80
2022/12/09 13:19:37;;;;;;;28.40;13.38;;;;;;;;;;5094214;28;20135;-80
2022/12/09 13:22:14;;;;;;;28.83;13.35;;;;;;;;;;5086903;28;20112;-80
2022/12/09 13:24:48;;;;;;;25.00;13.65;;;;;;;;;;5082508;28;20044;-81
2022/12/09 13:27:18;;;;;;;28.58;13.43;;;;;;;;;;5087948;28;20049;-80
2022/12/09 13:30:08;;;;;;;26.13;13.23;;;;;;;;;;5071841;28;20103;-81
2022/12/09 13:33:15;;;;;;;29.27;12.88;;;;;;;;;;5081260;28;20057;-80
2022/12/09 13:35:54;;;;;;;26.45;13.18;;;;;;;;;;5006509;28;20823;-80
2022/12/09 13:38:35;;;;;;;26.63;13.52;;;;;;;;;;5000862;28;20059;-81
2022/12/09 13:41:24;;;;;;;28.70;13.52;;;;;;;;;;4983368;28;20168;-82
2022/12/09 13:43:52;;;;;;;28.88;13.48;;;;;;;;;;5002689;28;20058;-80
2022/12/09 13:46:27;;;;;;;27.30;14.30;;;;;;;;;;5006104;28;20035;-80
2022/12/09 13:49:08;;;;;;;24.67;12.93;;;;;;;;;;5004456;28;20049;-80
2022/12/09 13:51:53;;;;;;;29.35;14.15;;;;;;;;;;5010666;28;20079;-80
2022/12/09 13:54:25;;;;;;;27.25;14.32;;;;;;;;;;5010854;28;20158;-80
2022/12/09 13:57:13;;;;;;;25.63;12.95;;;;;;;;;;5010357;28;20103;-81
2022/12/09 13:59:47;;;;;;;28.05;14.32;;;;;;;;;;5016509;28;20061;-81
2022/12/09 14:02:23;;;;;;;;;;;;;;;;;;5011388;28;20099;-80
2022/12/09 14:04:58;;;;;;;22.92;11.98;;;;;;;;;;5009261;28;42999;-80
2022/12/09 14:07:45;;;;;;;23.33;12.90;;;;;;;;;;5086117;28;20075;-81
2022/12/09 14:10:31;;;;;;;25.30;12.68;;;;;;;;;;5100129;28;20060;-80
2022/12/09 14:12:59;;;;;;;23.33;12.50;;;;;;;;;;5093593;28;20041;-80
2022/12/09 14:15:29;;;;;;;25.48;13.07;;;;;;;;;;5098308;28;20056;-80
2022/12/09 14:18:01;;;;;;;23.55;12.90;;;;;;;;;;5090380;28;20062;-80
2022/12/09 14:20:34;;;;;;;24.15;12.20;;;;;;;;;;5078072;28;20045;-80
2022/12/09 14:23:04;;;;;;;25.08;13.40;;;;;;;;;;5087426;28;20043;-80
2022/12/09 14:25:34;;;;;;;26.55;12.65;;;;;;;;;;5092951;28;20041;-80
2022/12/09 14:28:11;;;;;;;24.02;12.48;;;;;;;;;;5071090;28;20042;-80
2022/12/09 14:30:59;;;;;;;23.33;11.95;;;;;;;;;;5084075;28;20060;-81
2022/12/09 14:33:53;;;;;;;23.00;12.98;;;;;;;;;;5087109;28;20045;-80
2022/12/09 14:36:26;;;;;;;26.63;13.75;;;;;;;;;;5087432;28;20084;-80
2022/12/09 14:39:04;;;;;;;28.23;14.82;;;;;;;;;;5086521;28;20053;-81
2022/12/09 14:42:05;;;;;;;29.90;15.40;;;;;;;;;;5073802;28;20041;-80
2022/12/09 14:44:47;;;;;;;32.83;14.55;;;;;;;;;;5071704;28;20049;-78
2022/12/09 14:47:16;;;;;;;31.88;15.48;;;;;;;;;;5071299;28;20054;-79
2022/12/09 14:49:44;;;;;;;33.83;16.25;;;;;;;;;;5073227;28;20044;-79
2022/12/09 14:52:36;;;;;;;34.83;15.82;;;;;;;;;;5069730;28;20052;-78